createdAt,value
2022-08-17T05:05:54.951Z,47.23
2022-08-17T05:08:41.817Z,47.39
2022-08-17T05:11:29.454Z,47.41
2022-08-17T05:18:19.093Z,47.28
2022-08-17T05:21:06.796Z,47.41
2022-08-17T05:23:56.283Z,47.54
2022-08-17T05:26:43.712Z,47.67
2022-08-17T05:29:35.087Z,47.87
2022-08-17T05:32:37.773Z,47.46
2022-08-17T05:35:30.342Z,48.01
2022-08-17T05:38:19.041Z,47.72
2022-08-17T05:41:07.546Z,47.96
2022-08-17T05:43:56.533Z,47.77
2022-08-17T05:46:48.346Z,48.20
2022-08-17T05:49:35.781Z,47.90
2022-08-17T05:52:48.058Z,48.31
2022-08-17T05:55:47.792Z,48.58
2022-08-17T05:59:12.523Z,48.80
2022-08-17T06:02:08.282Z,49.01
2022-08-17T06:05:05.181Z,49.00
2022-08-17T06:08:37.183Z,49.86
2022-08-17T06:12:01.685Z,50.07
2022-08-17T06:15:19.478Z,49.76
2022-08-17T06:18:09.261Z,49.59
2022-08-17T06:21:02.743Z,49.68
2022-08-17T06:23:53.145Z,49.58
2022-08-17T06:26:45.401Z,49.75
2022-08-17T06:29:41.765Z,50.35
2022-08-17T06:32:28.663Z,50.50
2022-08-17T06:35:21.934Z,50.54
2022-08-17T06:38:38.110Z,51.39
2022-08-17T06:42:02.693Z,51.17
2022-08-17T06:45:23.880Z,50.59
2022-08-17T06:48:25.779Z,50.94
2022-08-17T06:51:28.401Z,50.73
2022-08-17T06:54:27.108Z,50.54
2022-08-17T06:57:19.918Z,51.31
2022-08-17T07:00:13.501Z,50.90
2022-08-17T07:03:20.815Z,51.24
2022-08-17T07:06:24.106Z,50.61
2022-08-17T07:09:17.337Z,50.84
2022-08-17T07:12:15.890Z,50.58
2022-08-17T07:15:13.874Z,50.94
2022-08-17T07:18:00.972Z,50.78
2022-08-17T07:20:50.748Z,50.50
2022-08-17T07:23:53.122Z,50.75
2022-08-17T07:26:39.882Z,50.07
2022-08-17T07:29:27.046Z,50.29
2022-08-17T07:32:18.393Z,50.16
2022-08-17T07:35:37.900Z,50.19
2022-08-17T07:38:31.045Z,50.04
2022-08-17T07:41:20.076Z,49.90
2022-08-17T07:44:15.202Z,50.14
2022-08-17T07:47:34.014Z,49.71
2022-08-17T07:50:26.036Z,49.64
2022-08-17T07:53:25.781Z,49.44
2022-08-17T07:56:34.553Z,49.43
2022-08-17T07:59:29.420Z,49.03
2022-08-17T08:02:30.123Z,49.08
2022-08-17T08:05:48.647Z,49.00
2022-08-17T08:08:38.003Z,48.28
2022-08-17T08:11:32.523Z,48.05
2022-08-17T08:14:33.565Z,47.99
2022-08-17T08:17:26.256Z,47.88
2022-08-17T08:20:44.645Z,47.59
2022-08-17T08:23:50.681Z,46.86
2022-08-17T08:26:41.423Z,46.57
2022-08-17T08:29:32.529Z,46.39
2022-08-17T08:32:28.497Z,46.25
2022-08-17T08:35:30.929Z,46.07
2022-08-17T08:38:39.404Z,45.64
2022-08-17T08:41:35.162Z,45.55
2022-08-17T08:45:03.534Z,45.06
2022-08-17T08:47:54.011Z,44.58
2022-08-17T08:50:56.537Z,44.44
2022-08-17T08:54:14.668Z,43.89
2022-08-17T08:57:25.440Z,43.65
2022-08-17T09:00:25.574Z,43.29
2022-08-17T09:03:43.801Z,43.08
2022-08-17T09:07:11.548Z,42.58
2022-08-17T09:10:14.081Z,42.24
2022-08-17T09:13:24.163Z,42.05
2022-08-17T09:16:20.168Z,42.24
2022-08-17T09:19:17.381Z,42.13
2022-08-17T09:22:14.128Z,41.71
2022-08-17T09:25:15.921Z,41.22
2022-08-17T09:28:08.401Z,40.75
2022-08-17T09:31:05.876Z,40.50
2022-08-17T09:33:55.406Z,40.28
2022-08-17T09:37:35.778Z,39.46
2022-08-17T09:40:29.127Z,39.47
2022-08-17T09:43:34.268Z,39.33
2022-08-17T09:46:29.110Z,38.84
2022-08-17T09:49:29.455Z,38.56
2022-08-17T09:52:24.980Z,38.18
2022-08-17T09:55:11.984Z,38.20
2022-08-17T09:58:20.072Z,37.78
2022-08-17T10:01:36.684Z,36.72
2022-08-17T10:04:50.302Z,36.81
2022-08-17T10:07:44.284Z,36.52
2022-08-17T10:10:42.613Z,36.10
2022-08-17T10:14:02.020Z,35.53
2022-08-17T10:17:33.137Z,35.49
2022-08-17T10:20:27.694Z,35.65
2022-08-17T10:23:51.403Z,35.40
2022-08-17T10:26:56.112Z,35.26
2022-08-17T10:30:00.491Z,35.01
2022-08-17T10:33:00.309Z,34.62
2022-08-17T10:35:47.019Z,34.72
2022-08-17T10:38:46.168Z,34.03
2022-08-17T10:41:42.630Z,34.23
2022-08-17T10:45:06.277Z,33.46
2022-08-17T10:48:05.297Z,33.69
2022-08-17T10:50:55.818Z,33.42
2022-08-17T10:53:43.347Z,33.48
2022-08-17T10:56:51.131Z,32.69
2022-08-17T10:59:37.814Z,32.25
2022-08-17T11:02:51.510Z,32.46
2022-08-17T11:06:13.077Z,32.25
2022-08-17T11:09:26.193Z,32.07
2022-08-17T11:12:20.063Z,31.90
2022-08-17T11:15:31.292Z,31.73
2022-08-17T11:18:29.786Z,31.67
2022-08-17T11:21:24.442Z,31.82
2022-08-17T11:24:33.343Z,30.94
2022-08-17T11:27:30.096Z,30.98
2022-08-17T11:30:44.501Z,30.54
2022-08-17T11:33:32.013Z,30.77
2022-08-17T11:36:37.633Z,30.29
2022-08-17T11:39:31.056Z,30.78
2022-08-17T11:42:53.154Z,29.77
2022-08-17T11:45:55.235Z,29.77
2022-08-17T11:49:18.627Z,29.77
2022-08-17T11:52:08.445Z,29.80
2022-08-17T11:55:03.635Z,29.59
2022-08-17T11:58:26.374Z,29.66
2022-08-17T12:01:33.151Z,28.66
2022-08-17T12:04:30.730Z,29.27
2022-08-17T12:07:23.104Z,29.02
2022-08-17T12:10:12.300Z,28.74
2022-08-17T12:13:11.074Z,28.37
2022-08-17T12:15:58.150Z,28.38
2022-08-17T12:18:54.567Z,28.74
2022-08-17T12:21:54.161Z,27.84
2022-08-17T12:24:50.459Z,27.81
2022-08-17T12:28:04.883Z,28.15
2022-08-17T12:30:54.117Z,28.45
2022-08-17T12:33:45.446Z,27.98
2022-08-17T12:36:32.680Z,27.90
2022-08-17T12:39:24.944Z,27.86
2022-08-17T12:42:25.582Z,27.28
2022-08-17T12:45:41.847Z,27.09
2022-08-17T12:48:31.857Z,27.77
2022-08-17T12:51:18.653Z,27.32
2022-08-17T12:54:05.557Z,27.48
2022-08-17T12:56:52.437Z,27.76
2022-08-17T12:59:46.556Z,27.50
2022-08-17T13:02:43.662Z,27.30
2022-08-17T13:05:35.916Z,27.88
2022-08-17T13:08:36.051Z,27.35
2022-08-17T13:11:26.043Z,27.78
2022-08-17T13:14:12.955Z,27.51
2022-08-17T13:17:01.193Z,27.31
2022-08-17T13:19:49.602Z,27.52
2022-08-17T13:22:36.481Z,27.46
2022-08-17T13:25:23.627Z,27.38
2022-08-17T13:28:18.231Z,27.39
2022-08-17T13:31:24.147Z,27.32
2022-08-17T13:34:26.867Z,27.40
2022-08-17T13:37:27.114Z,27.14
2022-08-17T13:40:14.894Z,27.26
2022-08-17T13:43:04.079Z,27.09
2022-08-17T13:45:52.223Z,26.84
2022-08-17T13:48:39.125Z,27.26
2022-08-17T13:51:31.633Z,27.16
2022-08-17T13:54:34.199Z,26.92
2022-08-17T13:57:23.806Z,27.38
2022-08-17T14:00:36.705Z,27.04
2022-08-17T14:03:24.694Z,26.88
2022-08-17T14:06:11.512Z,26.60
2022-08-17T14:09:09.096Z,26.06
2022-08-17T14:11:56.959Z,25.49
2022-08-17T14:14:44.035Z,24.80
2022-08-17T14:17:35.048Z,25.70
2022-08-17T14:20:25.025Z,25.32
2022-08-17T14:23:11.893Z,25.46
2022-08-17T14:25:58.728Z,24.87
2022-08-17T14:28:54.511Z,25.04
2022-08-17T14:31:48.625Z,24.99
2022-08-17T14:34:41.007Z,25.13
2022-08-17T14:37:28.915Z,25.08
2022-08-17T14:40:16.690Z,24.89
2022-08-17T14:43:03.893Z,24.66
2022-08-17T14:45:51.728Z,24.62
2022-08-17T14:48:40.533Z,24.95
2022-08-17T14:51:29.820Z,24.87
2022-08-17T14:54:33.147Z,24.68
2022-08-17T14:57:33.424Z,24.23
2022-08-17T15:00:21.280Z,24.00
2022-08-17T15:03:08.096Z,23.89
2022-08-17T15:05:55.238Z,24.12
2022-08-17T15:08:42.799Z,23.87
2022-08-17T15:11:30.879Z,23.79
2022-08-17T15:14:17.669Z,24.07
2022-08-17T15:17:04.468Z,24.25
2022-08-17T15:19:51.663Z,24.23
2022-08-17T15:22:40.806Z,23.81
2022-08-17T15:25:29.621Z,23.81
2022-08-17T15:28:17.101Z,23.56
2022-08-17T15:31:05.686Z,23.14
2022-08-17T15:33:52.993Z,23.29
2022-08-17T15:36:40.669Z,22.71
2022-08-17T15:39:36.086Z,22.45
2022-08-17T15:42:23.602Z,22.46
2022-08-17T15:45:13.416Z,21.72
2022-08-17T15:48:00.272Z,21.68
2022-08-17T15:50:47.040Z,22.12
2022-08-17T15:53:34.164Z,22.12
2022-08-17T15:56:21.295Z,21.60
2022-08-17T15:59:08.196Z,22.00
2022-08-17T16:03:13.894Z,21.72
2022-08-17T16:05:10.215Z,21.48
2022-08-17T16:07:57.188Z,22.07
2022-08-17T16:10:44.072Z,22.26
2022-08-17T16:13:31.614Z,21.64
2022-08-17T16:16:18.376Z,22.02
2022-08-17T16:19:05.141Z,22.27
2022-08-17T16:21:51.941Z,22.30
2022-08-17T16:24:47.364Z,22.37
2022-08-17T16:27:44.871Z,22.28
2022-08-17T16:30:35.316Z,22.68
2022-08-17T16:33:22.319Z,22.73
2022-08-17T16:36:09.370Z,22.69
2022-08-17T16:38:57.005Z,22.86
2022-08-17T16:41:46.647Z,22.62
2022-08-17T16:44:33.468Z,22.60
2022-08-17T16:47:20.575Z,22.96
2022-08-17T16:50:09.758Z,22.59
2022-08-17T16:53:06.399Z,22.69
2022-08-17T16:55:53.201Z,23.11
2022-08-17T16:58:40.932Z,22.96
2022-08-17T17:01:29.774Z,23.25
2022-08-17T17:04:17.333Z,23.17
2022-08-17T17:07:15.105Z,23.58
2022-08-17T17:10:05.938Z,23.64
2022-08-17T17:13:02.898Z,23.95
2022-08-17T17:16:01.492Z,23.46
2022-08-17T17:18:56.433Z,23.60
2022-08-17T17:22:12.963Z,23.52
2022-08-17T17:25:21.096Z,23.47
2022-08-17T17:28:26.726Z,23.53
2022-08-17T17:31:23.685Z,23.72
2022-08-17T17:34:13.676Z,24.03
2022-08-17T17:37:06.497Z,24.05
2022-08-17T17:39:56.653Z,24.40
2022-08-17T17:42:44.396Z,24.51
2022-08-17T17:45:38.441Z,24.21
2022-08-17T17:48:26.783Z,24.27
2022-08-17T17:52:03.650Z,24.46
2022-08-17T17:54:52.167Z,24.75
2022-08-17T17:58:10.160Z,24.55
2022-08-17T18:01:22.066Z,24.61
2022-08-17T18:04:21.311Z,24.90
2022-08-17T18:07:42.599Z,24.88
2022-08-17T18:10:39.123Z,25.05
2022-08-17T18:13:45.043Z,25.05
2022-08-17T18:16:34.963Z,25.49
2022-08-17T18:19:25.371Z,25.40
2022-08-17T18:22:15.269Z,25.58
2022-08-17T18:25:04.841Z,25.78
2022-08-17T18:27:51.931Z,25.48
2022-08-17T18:30:38.847Z,25.78
2022-08-17T18:33:26.799Z,26.12
2022-08-17T18:36:27.731Z,26.18
2022-08-17T18:39:17.344Z,25.92
2022-08-17T18:42:06.861Z,26.22
2022-08-17T18:44:59.951Z,25.98
2022-08-17T18:47:55.256Z,26.53
2022-08-17T18:50:45.279Z,26.47
2022-08-17T18:53:34.113Z,26.34
2022-08-17T18:56:33.292Z,26.49
2022-08-17T18:59:42.121Z,26.73
2022-08-17T19:02:45.836Z,26.43
2022-08-17T19:05:39.735Z,26.65
2022-08-17T19:08:32.382Z,26.70
2022-08-17T19:11:30.292Z,26.44
2022-08-17T19:14:18.554Z,26.87
2022-08-17T19:17:19.213Z,27.23
2022-08-17T19:20:24.429Z,27.03
2022-08-17T19:23:16.738Z,26.99
2022-08-17T19:26:05.858Z,26.88
2022-08-17T19:29:18.904Z,27.02
2022-08-17T19:32:08.925Z,27.06
2022-08-17T19:35:03.545Z,27.15
2022-08-17T19:38:31.589Z,26.82
2022-08-17T19:41:32.982Z,26.82
2022-08-17T19:44:35.070Z,26.56
2022-08-17T19:47:53.847Z,26.89
2022-08-17T19:50:51.341Z,27.13
2022-08-17T19:54:04.941Z,27.17
2022-08-17T19:57:02.814Z,27.33
2022-08-17T20:00:05.449Z,27.26
2022-08-17T21:24:15.140Z,30.04
2022-08-17T21:28:30.009Z,30.24
2022-08-17T21:40:09.068Z,30.66
2022-08-17T22:01:06.373Z,30.87
2022-08-17T22:16:48.267Z,31.14
2022-08-17T22:36:14.603Z,31.79
2022-08-17T22:56:16.580Z,31.80
2022-08-17T23:05:48.063Z,32.46
2022-08-17T23:08:08.172Z,32.48
2022-08-17T23:19:22.365Z,33.08
2022-08-17T23:23:03.807Z,33.15
2022-08-17T23:26:56.295Z,32.98
2022-08-17T23:34:19.013Z,33.16
2022-08-17T23:37:48.929Z,33.23
2022-08-17T23:41:57.930Z,33.49
2022-08-17T23:45:25.558Z,33.39
2022-08-17T23:49:19.757Z,33.21
